createdAt,value
2017-11-29T00:02:13.291Z,14.57
2017-11-29T00:04:42.161Z,18.50
2017-11-29T00:07:11.358Z,14.03
2017-11-29T00:09:40.504Z,16.93
2017-11-29T00:12:09.074Z,10.60
2017-11-29T00:14:37.527Z,15.37
2017-11-29T00:17:05.978Z,10.43
2017-11-29T00:19:34.513Z,14.33
2017-11-29T00:22:02.963Z,19.27
2017-11-29T00:24:32.165Z,8.83
2017-11-29T00:27:01.718Z,14.73
2017-11-29T00:29:30.169Z,23.00
2017-11-29T00:31:58.584Z,17.30
2017-11-29T00:34:27.009Z,21.03
2017-11-29T00:36:56.654Z,17.23
2017-11-29T00:39:25.229Z,27.10
2017-11-29T00:41:53.734Z,12.03
2017-11-29T00:44:22.215Z,20.80
2017-11-29T00:46:50.651Z,17.00
2017-11-29T00:49:19.333Z,22.97
2017-11-29T00:51:47.776Z,21.20
2017-11-29T00:54:17.015Z,25.50
2017-11-29T00:56:45.693Z,23.20
2017-11-29T00:59:14.182Z,18.60
2017-11-29T01:01:42.970Z,20.20
2017-11-29T01:04:11.502Z,24.30
2017-11-29T01:06:39.886Z,21.23
2017-11-29T01:09:08.300Z,8.40
2017-11-29T01:11:36.781Z,18.33
2017-11-29T01:14:05.984Z,22.60
2017-11-29T01:16:34.360Z,14.90
2017-11-29T01:19:02.804Z,18.10
2017-11-29T01:21:31.221Z,14.90
2017-11-29T01:23:59.657Z,23.80
2017-11-29T01:26:28.426Z,19.53
2017-11-29T01:28:56.862Z,19.63
2017-11-29T01:31:25.294Z,17.87
2017-11-29T01:33:53.740Z,19.37
2017-11-29T01:36:22.151Z,19.53
2017-11-29T01:38:50.607Z,20.67
2017-11-29T01:41:19.381Z,17.00
2017-11-29T01:43:47.842Z,27.33
2017-11-29T01:46:17.044Z,21.03
2017-11-29T01:48:46.451Z,18.37
2017-11-29T01:51:15.246Z,21.07
2017-11-29T01:53:44.480Z,16.73
2017-11-29T01:56:13.135Z,18.37
2017-11-29T01:58:41.521Z,5.27
2017-11-29T02:01:09.961Z,21.23
2017-11-29T02:03:38.872Z,16.10
2017-11-29T02:06:19.180Z,9.27
2017-11-29T02:08:47.828Z,22.30
2017-11-29T02:11:16.253Z,20.60
2017-11-29T02:13:44.953Z,15.27
2017-11-29T02:16:13.433Z,10.27
2017-11-29T02:18:41.892Z,18.23
2017-11-29T02:21:10.373Z,19.03
2017-11-29T02:23:38.869Z,16.60
2017-11-29T02:26:07.335Z,23.37
2017-11-29T02:28:35.815Z,21.27
2017-11-29T02:31:04.352Z,33.87
2017-11-29T02:33:32.837Z,15.90
2017-11-29T02:36:02.063Z,20.97
2017-11-29T02:38:31.194Z,17.27
2017-11-29T02:41:11.439Z,12.20
2017-11-29T02:43:40.297Z,2.43
2017-11-29T02:46:08.760Z,18.17
2017-11-29T02:48:37.264Z,18.73
2017-11-29T02:51:05.886Z,19.77
2017-11-29T02:53:34.376Z,20.50
2017-11-29T02:56:02.842Z,20.90
2017-11-29T02:58:31.496Z,24.27
2017-11-29T03:01:00.051Z,19.93
2017-11-29T03:03:29.255Z,20.87
2017-11-29T03:05:57.778Z,25.00
2017-11-29T03:08:26.218Z,18.23
2017-11-29T03:10:54.662Z,19.83
2017-11-29T03:13:23.596Z,18.30
2017-11-29T03:15:51.992Z,17.33
2017-11-29T03:18:20.417Z,15.87
2017-11-29T03:20:48.902Z,21.10
2017-11-29T03:23:17.305Z,22.10
2017-11-29T03:25:45.781Z,24.60
2017-11-29T03:28:14.989Z,18.60
2017-11-29T03:30:43.386Z,30.37
2017-11-29T03:33:11.829Z,29.03
2017-11-29T03:35:41.329Z,35.20
2017-11-29T03:38:10.527Z,26.60
2017-11-29T03:40:39.696Z,33.50
2017-11-29T03:43:08.142Z,22.70
2017-11-29T03:45:36.735Z,24.17
2017-11-29T03:48:05.110Z,31.70
2017-11-29T03:50:33.770Z,31.23
2017-11-29T03:53:02.230Z,33.90
2017-11-29T03:55:30.633Z,32.50
2017-11-29T03:57:59.106Z,32.37
2017-11-29T04:00:27.604Z,33.40
2017-11-29T04:02:56.138Z,35.70
2017-11-29T04:05:24.597Z,32.37
2017-11-29T04:07:53.061Z,13.90
2017-11-29T04:10:21.539Z,23.37
2017-11-29T04:12:50.062Z,40.80
2017-11-29T04:15:18.551Z,40.20
2017-11-29T04:17:46.983Z,39.30
2017-11-29T04:20:15.491Z,34.97
2017-11-29T04:22:43.930Z,36.47
2017-11-29T04:25:12.422Z,37.93
2017-11-29T04:27:41.296Z,40.23
2017-11-29T04:30:09.775Z,35.10
2017-11-29T04:32:38.189Z,41.63
2017-11-29T04:35:06.636Z,41.37
2017-11-29T04:37:35.053Z,40.77
2017-11-29T04:40:03.538Z,26.83
2017-11-29T04:42:32.178Z,38.27
2017-11-29T04:45:00.560Z,40.60
2017-11-29T04:47:29.366Z,30.60
2017-11-29T04:49:57.925Z,34.97
2017-11-29T04:52:26.399Z,33.00
2017-11-29T04:54:54.884Z,40.50
2017-11-29T04:57:24.770Z,45.43
2017-11-29T04:59:53.211Z,54.93
2017-11-29T05:02:21.658Z,46.67
2017-11-29T05:04:51.265Z,43.60
2017-11-29T05:07:20.518Z,47.57
2017-11-29T05:09:48.977Z,50.87
2017-11-29T05:12:18.325Z,39.60
2017-11-29T05:14:46.802Z,51.73
2017-11-29T05:17:15.304Z,39.73
2017-11-29T05:19:44.201Z,47.93
2017-11-29T05:22:13.412Z,51.83
2017-11-29T05:24:41.864Z,47.13
2017-11-29T05:27:10.826Z,51.40
2017-11-29T05:29:39.678Z,46.07
2017-11-29T05:32:08.150Z,42.57
2017-11-29T05:34:36.794Z,48.20
2017-11-29T05:37:05.330Z,43.63
2017-11-29T05:39:33.782Z,40.77
2017-11-29T05:42:03.057Z,45.27
2017-11-29T05:44:31.590Z,42.50
2017-11-29T05:47:00.068Z,50.87
2017-11-29T05:49:28.922Z,41.87
2017-11-29T05:51:57.370Z,54.77
2017-11-29T05:54:25.859Z,40.40
2017-11-29T05:56:54.372Z,46.90
2017-11-29T05:59:23.612Z,45.40
2017-11-29T06:01:52.056Z,41.40
2017-11-29T06:04:21.585Z,51.03
2017-11-29T06:06:50.119Z,39.30
2017-11-29T06:09:18.560Z,38.17
2017-11-29T06:11:47.053Z,16.27
2017-11-29T06:14:15.514Z,30.97
2017-11-29T06:16:43.981Z,48.27
2017-11-29T06:19:12.610Z,55.13
2017-11-29T06:21:41.049Z,55.73
2017-11-29T06:24:09.488Z,56.60
2017-11-29T06:26:38.002Z,63.40
2017-11-29T06:29:06.452Z,53.97
2017-11-29T06:31:35.068Z,57.37
2017-11-29T06:34:03.747Z,51.87
2017-11-29T06:36:32.922Z,47.03
2017-11-29T06:39:01.334Z,52.13
2017-11-29T06:41:30.035Z,42.00
2017-11-29T06:43:58.514Z,52.10
2017-11-29T06:46:26.940Z,51.27
2017-11-29T06:48:55.766Z,68.33
2017-11-29T06:51:25.386Z,39.97
2017-11-29T06:53:53.796Z,55.97
2017-11-29T06:56:22.336Z,57.00
2017-11-29T06:58:50.728Z,59.20
2017-11-29T07:01:19.174Z,65.60
2017-11-29T07:03:47.940Z,60.30
2017-11-29T07:06:16.371Z,60.67
2017-11-29T07:08:45.029Z,51.40
2017-11-29T07:11:14.370Z,59.17
2017-11-29T07:13:42.807Z,54.60
2017-11-29T07:16:11.226Z,61.00
2017-11-29T07:18:39.666Z,51.53
2017-11-29T07:21:09.828Z,66.57
2017-11-29T07:23:38.253Z,9.60
2017-11-29T07:26:06.697Z,61.83
2017-11-29T07:28:35.113Z,66.13
2017-11-29T07:31:03.527Z,71.90
2017-11-29T07:33:32.447Z,74.67
2017-11-29T07:36:00.910Z,66.37
2017-11-29T07:38:29.334Z,50.83
2017-11-29T07:40:58.277Z,70.97
2017-11-29T07:43:26.716Z,63.47
2017-11-29T07:45:55.148Z,64.53
2017-11-29T07:48:23.810Z,62.97
2017-11-29T07:50:52.983Z,55.60
2017-11-29T07:53:21.802Z,54.20
2017-11-29T07:55:51.154Z,62.90
2017-11-29T07:58:19.606Z,62.40
2017-11-29T08:00:48.061Z,57.00
2017-11-29T08:03:17.244Z,54.80
2017-11-29T08:05:46.415Z,47.83
2017-11-29T08:08:14.802Z,51.37
2017-11-29T08:10:43.517Z,69.73
2017-11-29T08:13:12.682Z,64.57
2017-11-29T08:15:41.098Z,52.50
2017-11-29T08:18:10.365Z,65.80
2017-11-29T08:20:38.804Z,68.40
2017-11-29T08:23:07.248Z,61.17
2017-11-29T08:25:36.774Z,36.13
2017-11-29T08:28:05.377Z,50.57
2017-11-29T08:30:33.852Z,49.60
2017-11-29T08:33:02.350Z,39.83
2017-11-29T08:35:31.638Z,53.90
2017-11-29T08:38:00.194Z,47.27
2017-11-29T08:40:29.598Z,53.87
2017-11-29T08:42:58.827Z,57.70
2017-11-29T08:45:28.155Z,44.40
2017-11-29T08:47:57.070Z,33.43
2017-11-29T08:50:25.584Z,47.03
2017-11-29T08:52:54.055Z,41.77
2017-11-29T08:55:23.016Z,34.27
2017-11-29T08:57:51.482Z,50.23
2017-11-29T09:00:20.063Z,55.03
2017-11-29T09:02:48.707Z,44.73
2017-11-29T09:05:17.200Z,46.43
2017-11-29T09:07:45.700Z,54.37
2017-11-29T09:10:14.351Z,42.33
2017-11-29T09:12:42.931Z,45.17
2017-11-29T09:15:11.465Z,43.30
2017-11-29T09:17:40.097Z,51.37
2017-11-29T09:20:08.586Z,28.73
2017-11-29T09:22:37.165Z,16.93
2017-11-29T09:25:05.698Z,45.60
2017-11-29T09:27:34.248Z,45.00
2017-11-29T09:30:02.762Z,47.30
2017-11-29T09:32:31.583Z,32.00
2017-11-29T09:35:00.794Z,23.60
2017-11-29T09:37:29.632Z,14.53
2017-11-29T09:39:58.952Z,46.37
2017-11-29T09:42:27.435Z,41.77
2017-11-29T09:44:55.959Z,36.20
2017-11-29T09:47:24.650Z,36.57
2017-11-29T09:49:53.183Z,48.60
2017-11-29T09:52:21.727Z,36.37
2017-11-29T09:54:50.743Z,44.20
2017-11-29T09:57:19.382Z,19.70
2017-11-29T09:59:47.861Z,37.67
2017-11-29T10:02:16.394Z,23.77
2017-11-29T10:04:44.923Z,39.13
2017-11-29T10:07:13.520Z,42.97
2017-11-29T10:09:42.095Z,40.17
2017-11-29T10:12:10.576Z,28.33
2017-11-29T10:14:39.123Z,37.57
2017-11-29T10:17:07.804Z,25.47
2017-11-29T10:19:36.284Z,50.07
2017-11-29T10:22:04.764Z,30.13
2017-11-29T10:24:33.452Z,32.10
2017-11-29T10:27:01.988Z,22.57
2017-11-29T10:29:30.511Z,14.50
2017-11-29T10:31:59.044Z,29.90
2017-11-29T10:34:27.520Z,18.07
2017-11-29T10:36:56.006Z,29.17
2017-11-29T10:39:24.620Z,25.00
2017-11-29T10:41:53.113Z,22.67
2017-11-29T10:44:21.666Z,23.93
2017-11-29T10:46:50.244Z,28.23
2017-11-29T10:49:18.829Z,11.80
2017-11-29T10:51:48.323Z,17.03
2017-11-29T10:54:16.927Z,34.47
2017-11-29T10:56:45.483Z,27.57
2017-11-29T10:59:14.639Z,20.47
2017-11-29T11:01:43.530Z,18.63
2017-11-29T11:04:12.057Z,6.77
2017-11-29T11:06:40.544Z,17.40
2017-11-29T11:09:09.174Z,15.10
2017-11-29T11:11:37.704Z,8.17
2017-11-29T11:14:06.224Z,16.27
2017-11-29T11:16:35.261Z,21.33
2017-11-29T11:19:03.849Z,11.60
2017-11-29T11:21:33.863Z,20.80
2017-11-29T11:24:02.654Z,8.43
2017-11-29T11:26:31.156Z,14.60
2017-11-29T11:29:00.534Z,14.40
2017-11-29T11:31:30.135Z,25.10
2017-11-29T11:33:59.437Z,24.13
2017-11-29T11:36:30.305Z,23.37
2017-11-29T11:38:58.987Z,27.43
2017-11-29T11:41:28.012Z,16.20
2017-11-29T11:43:56.512Z,24.63
2017-11-29T11:46:25.253Z,16.60
2017-11-29T11:48:53.751Z,24.27
2017-11-29T11:51:22.282Z,23.03
2017-11-29T11:53:51.705Z,15.23
2017-11-29T11:56:20.455Z,13.67
2017-11-29T11:58:48.927Z,13.37
2017-11-29T12:01:17.867Z,13.00
2017-11-29T12:03:46.323Z,8.90
2017-11-29T12:06:14.861Z,6.47
2017-11-29T12:08:43.373Z,9.60
2017-11-29T12:11:11.858Z,9.90
2017-11-29T12:13:40.345Z,12.70
2017-11-29T12:16:10.081Z,14.23
2017-11-29T12:18:38.833Z,11.77
2017-11-29T12:21:07.320Z,10.80
2017-11-29T12:23:36.734Z,16.27
2017-11-29T12:26:05.211Z,12.67
2017-11-29T12:28:34.461Z,11.80
2017-11-29T12:31:03.896Z,12.10
2017-11-29T12:33:32.358Z,12.13
2017-11-29T12:36:00.825Z,13.67
2017-11-29T12:38:29.601Z,13.00
2017-11-29T12:40:58.078Z,14.23
2017-11-29T12:43:27.987Z,12.03
2017-11-29T12:45:57.576Z,10.53
2017-11-29T12:48:38.687Z,12.27
2017-11-29T12:51:16.067Z,11.60
2017-11-29T12:53:44.624Z,16.23
2017-11-29T12:56:13.897Z,12.10
2017-11-29T12:58:43.545Z,18.70
2017-11-29T13:01:12.038Z,14.70
2017-11-29T13:03:40.868Z,11.07
2017-11-29T13:06:09.607Z,17.07
2017-11-29T13:08:38.125Z,32.17
2017-11-29T13:11:06.607Z,13.27
2017-11-29T13:13:35.453Z,13.10
2017-11-29T13:16:03.928Z,13.27
2017-11-29T13:18:33.168Z,21.67
2017-11-29T13:21:01.813Z,14.33
2017-11-29T13:23:31.080Z,10.03
2017-11-29T13:25:59.510Z,13.30
2017-11-29T13:28:28.584Z,13.83
2017-11-29T13:30:58.106Z,18.50
2017-11-29T13:33:26.595Z,14.90
2017-11-29T13:35:55.378Z,14.10
2017-11-29T13:38:23.876Z,13.73
2017-11-29T13:40:52.337Z,13.33
2017-11-29T13:43:22.850Z,14.33
2017-11-29T13:45:51.360Z,13.50
2017-11-29T13:48:19.854Z,13.00
2017-11-29T13:50:48.466Z,15.20
2017-11-29T13:53:16.984Z,11.87
2017-11-29T13:55:46.616Z,10.70
2017-11-29T13:58:15.123Z,14.30
2017-11-29T14:00:43.620Z,7.97
2017-11-29T14:03:12.134Z,14.73
2017-11-29T14:05:41.348Z,13.87
2017-11-29T14:08:09.869Z,13.00
2017-11-29T14:10:38.414Z,12.13
2017-11-29T14:13:07.189Z,12.00
2017-11-29T14:15:35.629Z,13.17
2017-11-29T14:18:04.064Z,7.43
2017-11-29T14:20:32.952Z,18.17
2017-11-29T14:23:01.361Z,15.80
2017-11-29T14:25:29.812Z,15.90
2017-11-29T14:27:58.392Z,16.97
2017-11-29T14:30:26.845Z,15.73
2017-11-29T14:32:56.420Z,18.23
2017-11-29T14:35:25.741Z,18.37
2017-11-29T14:37:54.379Z,25.00
2017-11-29T14:40:22.784Z,14.50
2017-11-29T14:42:51.778Z,14.80
2017-11-29T14:45:20.430Z,18.80
2017-11-29T14:47:48.936Z,12.50
2017-11-29T14:50:17.537Z,14.40
2017-11-29T14:52:46.017Z,12.23
2017-11-29T14:55:14.554Z,17.33
2017-11-29T14:57:43.192Z,22.03
2017-11-29T15:00:11.608Z,12.07
2017-11-29T15:02:40.982Z,7.57
2017-11-29T15:05:10.515Z,6.93
2017-11-29T15:07:39.169Z,5.53
2017-11-29T15:10:07.735Z,16.53
2017-11-29T15:12:36.348Z,13.40
2017-11-29T15:15:05.537Z,16.10
2017-11-29T15:17:34.703Z,13.07
2017-11-29T15:20:03.468Z,9.17
2017-11-29T15:22:31.883Z,6.70
2017-11-29T15:25:00.296Z,13.17
2017-11-29T15:27:30.156Z,12.80
2017-11-29T15:29:58.599Z,13.20
2017-11-29T15:32:27.112Z,14.20
2017-11-29T15:34:55.986Z,15.80
2017-11-29T15:37:24.436Z,20.27
2017-11-29T15:39:53.680Z,15.83
2017-11-29T15:42:22.148Z,14.90
2017-11-29T15:44:50.608Z,21.20
2017-11-29T15:47:19.155Z,13.63
2017-11-29T15:49:47.787Z,13.67
2017-11-29T15:52:16.226Z,19.50
2017-11-29T15:54:44.680Z,19.10
2017-11-29T15:57:13.533Z,22.77
2017-11-29T15:59:42.074Z,19.23
2017-11-29T16:02:10.497Z,13.63
2017-11-29T16:04:38.945Z,17.30
2017-11-29T16:07:08.119Z,15.13
2017-11-29T16:09:36.741Z,13.50
2017-11-29T16:12:06.452Z,14.47
2017-11-29T16:14:35.661Z,15.47
2017-11-29T16:17:04.132Z,16.20
2017-11-29T16:19:32.751Z,12.40
2017-11-29T16:22:01.236Z,19.00
2017-11-29T16:24:30.012Z,18.50
2017-11-29T16:26:58.464Z,18.07
2017-11-29T16:29:27.677Z,15.70
2017-11-29T16:31:56.179Z,15.27
2017-11-29T16:34:24.730Z,3.40
2017-11-29T16:36:53.973Z,16.30
2017-11-29T16:39:22.414Z,19.10
2017-11-29T16:41:51.003Z,20.47
2017-11-29T16:44:19.414Z,11.03
2017-11-29T16:46:48.696Z,12.40
2017-11-29T16:51:52.900Z,56.50
2017-11-29T16:54:21.499Z,16.67
2017-11-29T16:56:49.962Z,20.67
2017-11-29T16:59:19.135Z,26.30
2017-11-29T17:01:47.950Z,8.97
2017-11-29T17:04:17.166Z,29.43
2017-11-29T17:06:45.655Z,7.20
2017-11-29T17:09:14.536Z,25.43
2017-11-29T17:11:43.498Z,28.93
2017-11-29T17:14:11.930Z,18.60
2017-11-29T17:16:40.420Z,32.53
2017-11-29T17:19:08.913Z,20.57
2017-11-29T17:21:38.159Z,21.73
2017-11-29T17:24:06.916Z,12.60
2017-11-29T17:26:35.355Z,45.43
2017-11-29T17:29:03.820Z,37.80
2017-11-29T17:31:32.361Z,41.40
2017-11-29T17:34:00.759Z,14.30
2017-11-29T17:36:29.309Z,34.10
2017-11-29T17:38:58.100Z,34.80
2017-11-29T17:41:26.541Z,43.13
2017-11-29T17:43:54.978Z,41.90
2017-11-29T17:46:23.762Z,35.90
2017-11-29T17:48:52.226Z,44.70
2017-11-29T17:51:20.681Z,48.90
2017-11-29T17:53:49.410Z,49.40
2017-11-29T17:56:17.829Z,59.40
2017-11-29T17:58:46.248Z,59.73
2017-11-29T18:01:15.012Z,43.70
2017-11-29T18:03:43.426Z,52.53
2017-11-29T18:06:11.780Z,39.07
2017-11-29T18:08:42.300Z,38.27
2017-11-29T18:11:10.718Z,34.97
2017-11-29T18:13:39.508Z,47.93
2017-11-29T18:16:07.998Z,48.30
2017-11-29T18:18:37.215Z,45.87
2017-11-29T18:21:06.414Z,41.27
2017-11-29T18:23:35.262Z,48.53
2017-11-29T18:26:03.789Z,55.43
2017-11-29T18:28:32.326Z,51.87
2017-11-29T18:31:01.175Z,54.87
2017-11-29T18:33:29.612Z,69.73
2017-11-29T18:35:58.028Z,44.73
2017-11-29T18:38:26.673Z,55.73
2017-11-29T18:40:55.115Z,67.77
2017-11-29T18:43:23.586Z,67.80
2017-11-29T18:45:52.102Z,61.63
2017-11-29T18:48:21.367Z,78.20
2017-11-29T18:50:50.009Z,81.40
2017-11-29T18:53:19.428Z,62.67
2017-11-29T18:55:47.844Z,77.47
2017-11-29T18:58:16.285Z,98.83
2017-11-29T19:00:44.813Z,83.67
2017-11-29T19:03:13.336Z,80.50
2017-11-29T19:05:41.864Z,77.97
2017-11-29T19:08:10.560Z,64.93
2017-11-29T19:10:39.100Z,62.70
2017-11-29T19:13:07.607Z,68.73
2017-11-29T19:15:36.567Z,50.30
2017-11-29T19:18:05.123Z,76.60
2017-11-29T19:20:33.592Z,23.37
2017-11-29T19:23:02.382Z,42.93
2017-11-29T19:25:30.898Z,49.27
2017-11-29T19:28:00.237Z,48.70
2017-11-29T19:30:28.981Z,46.20
2017-11-29T19:32:58.174Z,47.90
2017-11-29T19:35:28.393Z,53.23
2017-11-29T19:37:58.896Z,43.47
2017-11-29T19:40:28.414Z,62.53
2017-11-29T19:42:56.936Z,20.73
2017-11-29T19:45:25.732Z,35.40
2017-11-29T19:47:54.962Z,69.57
2017-11-29T19:50:23.396Z,26.57
2017-11-29T19:52:53.013Z,72.93
2017-11-29T19:55:21.434Z,27.80
2017-11-29T19:57:49.886Z,35.03
2017-11-29T20:00:18.476Z,85.17
2017-11-29T20:02:46.945Z,19.37
2017-11-29T20:05:15.624Z,28.63
2017-11-29T20:07:44.253Z,41.00
2017-11-29T20:10:12.706Z,47.80
2017-11-29T20:12:41.232Z,22.77
2017-11-29T20:15:10.615Z,64.77
2017-11-29T20:17:39.268Z,68.40
2017-11-29T20:20:07.785Z,32.73
2017-11-29T20:22:36.535Z,25.87
2017-11-29T20:25:04.974Z,19.53
2017-11-29T20:27:33.456Z,22.37
2017-11-29T20:30:02.489Z,50.67
2017-11-29T20:32:30.898Z,19.10
2017-11-29T20:34:59.323Z,20.57
2017-11-29T20:37:28.591Z,27.70
2017-11-29T20:39:57.786Z,25.03
2017-11-29T20:42:26.274Z,36.60
2017-11-29T20:44:55.061Z,44.83
2017-11-29T20:47:23.475Z,45.97
2017-11-29T20:49:51.904Z,51.37
2017-11-29T20:52:32.436Z,51.63
2017-11-29T20:55:00.910Z,48.73
2017-11-29T20:57:29.405Z,40.40
2017-11-29T20:59:58.036Z,47.43
2017-11-29T21:02:26.487Z,36.77
2017-11-29T21:04:54.940Z,47.53
2017-11-29T21:07:23.377Z,24.93
2017-11-29T21:09:51.823Z,21.70
2017-11-29T21:12:20.340Z,42.87
2017-11-29T21:14:48.813Z,34.40
2017-11-29T21:17:17.458Z,21.57
2017-11-29T21:19:46.234Z,32.97
2017-11-29T21:22:14.720Z,17.63
2017-11-29T21:24:43.148Z,30.47
2017-11-29T21:27:11.560Z,38.60
2017-11-29T21:29:41.176Z,35.00
2017-11-29T21:32:09.624Z,35.47
2017-11-29T21:34:38.032Z,38.87
2017-11-29T21:37:07.472Z,40.47
2017-11-29T21:39:36.435Z,47.07
2017-11-29T21:42:05.230Z,45.87
2017-11-29T21:44:33.837Z,35.27
2017-11-29T21:47:02.223Z,47.67
2017-11-29T21:49:30.670Z,43.90
2017-11-29T21:51:59.134Z,43.50
2017-11-29T21:54:28.413Z,47.43
2017-11-29T21:56:56.851Z,44.80
2017-11-29T21:59:25.489Z,44.70
2017-11-29T22:01:54.677Z,47.87
2017-11-29T22:04:23.107Z,41.03
2017-11-29T22:06:51.859Z,40.30
2017-11-29T22:09:21.025Z,53.87
2017-11-29T22:11:50.181Z,56.57
2017-11-29T22:14:18.767Z,38.07
2017-11-29T22:16:47.217Z,44.57
2017-11-29T22:19:17.171Z,41.47
2017-11-29T22:21:45.723Z,38.60
2017-11-29T22:24:14.932Z,39.47
2017-11-29T22:26:43.400Z,52.57
2017-11-29T22:29:12.689Z,53.40
2017-11-29T22:31:42.018Z,48.60
2017-11-29T22:34:10.458Z,59.17
2017-11-29T22:36:39.573Z,51.63
2017-11-29T22:39:08.739Z,57.30
2017-11-29T22:41:37.201Z,49.57
2017-11-29T22:44:05.854Z,50.20
2017-11-29T22:46:35.236Z,40.37
2017-11-29T22:49:03.659Z,43.00
2017-11-29T22:51:32.459Z,38.33
2017-11-29T22:54:00.908Z,39.40
2017-11-29T22:56:29.703Z,40.87
2017-11-29T22:58:58.374Z,36.33
2017-11-29T23:01:26.769Z,30.70
2017-11-29T23:03:55.183Z,47.20
2017-11-29T23:06:23.803Z,37.83
2017-11-29T23:08:53.023Z,38.90
2017-11-29T23:11:21.436Z,14.07
2017-11-29T23:13:49.965Z,19.27
2017-11-29T23:16:19.238Z,16.97
2017-11-29T23:18:47.659Z,23.17
2017-11-29T23:21:16.436Z,22.93
2017-11-29T23:23:45.797Z,24.20
2017-11-29T23:26:14.249Z,21.03
2017-11-29T23:28:42.890Z,22.40
2017-11-29T23:31:12.078Z,19.70
2017-11-29T23:33:41.307Z,36.70
2017-11-29T23:36:09.788Z,43.33
2017-11-29T23:38:38.335Z,47.30
2017-11-29T23:41:06.754Z,50.10
2017-11-29T23:43:35.227Z,59.43
2017-11-29T23:46:03.891Z,42.90
2017-11-29T23:48:33.133Z,41.63
2017-11-29T23:51:01.874Z,38.47
2017-11-29T23:53:30.295Z,35.00
2017-11-29T23:55:58.767Z,33.27
2017-11-29T23:58:27.342Z,37.77
